ROKJ(METAR)
06/25 09:00
ROKJ 250000Z 12012KT 9999 FEW042 BKNXXX 27/25 Q1009 RMK A2981=
戻る
トップページへ戻る
IMOC Co,.Ltd.